Weather at Shchuchyn

Public forecast

Using degrees Celsius for public forecast. Weather courtesy of forecast.io.

Closest aviation weather report (METAR) to Shchuchyn

Report is more than 6 hours old.

Closest report is Hrodna Airport, 25.3 nm (46.8 km) W.

2024/06/24 13:00 (retrieved 9 hours ago)

UMMG 241300Z 34003MPS 9999 BKN026 19/14 Q1016 NOSIG

Closest aviation forecast (TAF) to Shchuchyn

Closest forecast is Vilnius International Airport, 64.9 nm (120.1 km) NNE.

2024/06/24 18:07 (retrieved 4 hours ago)

TAF EYVI 241700Z 2418/2518 VRB05KT 5000 BR SCT005 SCT040 TEMPO 2418/2420 VRB15KT SHRA BKN035CB TEMPO 2420/2504 0500 FG VV002 BECMG 2504/2506 9000 NSW NSC TEMPO 2508/2516 SCT045TCU